Time;durP1;ratioP1;P1;durP2;ratioP2;P2;SDS_P1;SDS_P2;PMS_P1;PMS_P2;Temp;Humidity;BMP_temperature;BMP_pressure;BME280_temperature;BME280_humidity;BME280_pressure;Samples;Min_cycle;Max_cycle;Signal;HPM_P1;HPM_P2
2023/08/29 00:01:52;;;;;;;10.88;6.35;;;;;;;;;;5034323;28;20108;-75
2023/08/29 00:04:19;;;;;;;15.98;6.35;;;;;;;;;;5028698;28;20137;-78
2023/08/29 00:06:45;;;;;;;12.38;6.75;;;;;;;;;;5037369;28;20044;-76
2023/08/29 00:09:11;;;;;;;9.00;5.55;;;;;;;;;;5033807;28;20041;-77
2023/08/29 00:11:37;;;;;;;12.15;7.22;;;;;;;;;;5042677;28;20139;-76
2023/08/29 00:14:03;;;;;;;10.68;6.18;;;;;;;;;;5034624;28;20048;-76
2023/08/29 00:16:30;;;;;;;15.80;6.93;;;;;;;;;;5037135;28;20033;-76
2023/08/29 00:18:56;;;;;;;9.32;5.15;;;;;;;;;;4995576;28;20479;-76
2023/08/29 00:21:23;;;;;;;6.55;4.93;;;;;;;;;;5036239;28;20060;-77
2023/08/29 00:23:49;;;;;;;9.90;5.35;;;;;;;;;;5018812;28;20025;-77
2023/08/29 00:26:15;;;;;;;9.13;5.10;;;;;;;;;;5040842;28;20053;-77
2023/08/29 00:28:43;;;;;;;7.60;5.28;;;;;;;;;;5038081;28;20029;-77
2023/08/29 00:31:10;;;;;;;7.57;4.90;;;;;;;;;;5013598;28;20434;-77
2023/08/29 00:33:38;;;;;;;7.57;4.85;;;;;;;;;;5029795;28;20402;-76
2023/08/29 00:36:04;;;;;;;8.43;4.15;;;;;;;;;;5021191;28;20033;-77
2023/08/29 00:38:31;;;;;;;5.90;3.47;;;;;;;;;;5038182;28;20125;-77
2023/08/29 00:40:59;;;;;;;9.75;3.95;;;;;;;;;;5034370;28;20120;-77
2023/08/29 00:43:25;;;;;;;10.90;4.20;;;;;;;;;;5012352;28;20033;-77
2023/08/29 00:45:52;;;;;;;5.78;3.58;;;;;;;;;;5019234;28;20386;-75
2023/08/29 00:48:18;;;;;;;12.80;5.13;;;;;;;;;;5016970;28;20044;-77
2023/08/29 00:50:44;;;;;;;8.35;4.57;;;;;;;;;;5033301;28;20132;-76
2023/08/29 00:53:11;;;;;;;11.00;5.50;;;;;;;;;;5042993;28;20326;-77
2023/08/29 00:55:37;;;;;;;10.13;5.13;;;;;;;;;;5055718;28;20037;-76
2023/08/29 00:58:04;;;;;;;8.40;4.95;;;;;;;;;;5044185;28;20124;-77
2023/08/29 01:00:31;;;;;;;7.60;5.25;;;;;;;;;;5029810;28;20490;-77
2023/08/29 01:02:57;;;;;;;7.20;4.85;;;;;;;;;;5031319;28;20048;-77
2023/08/29 01:05:24;;;;;;;16.75;8.13;;;;;;;;;;5036084;28;20276;-79
2023/08/29 01:07:50;;;;;;;16.85;7.80;;;;;;;;;;5034343;28;20029;-77
2023/08/29 01:10:18;;;;;;;15.68;7.93;;;;;;;;;;5021545;28;20044;-77
2023/08/29 01:12:58;;;;;;;14.85;7.22;;;;;;;;;;5032701;28;20030;-76
2023/08/29 01:15:27;;;;;;;12.57;7.95;;;;;;;;;;5034234;28;20031;-78
2023/08/29 01:18:00;;;;;;;14.45;8.05;;;;;;;;;;5009677;28;20069;-77
2023/08/29 01:20:29;;;;;;;16.35;7.97;;;;;;;;;;5028465;28;20033;-78
2023/08/29 01:23:07;;;;;;;14.48;7.22;;;;;;;;;;5035901;28;20035;-77
2023/08/29 01:25:33;;;;;;;12.38;7.07;;;;;;;;;;5036653;28;20051;-77
2023/08/29 01:28:00;;;;;;;13.98;7.38;;;;;;;;;;5012393;28;20491;-78
2023/08/29 01:30:28;;;;;;;19.75;8.88;;;;;;;;;;5021034;28;20051;-77
2023/08/29 01:32:55;;;;;;;18.15;10.10;;;;;;;;;;5019398;28;20042;-77
2023/08/29 01:35:22;;;;;;;18.27;9.63;;;;;;;;;;5034765;28;21461;-77
2023/08/29 01:37:48;;;;;;;20.95;8.65;;;;;;;;;;5013714;28;20100;-78
2023/08/29 01:40:14;;;;;;;14.52;7.80;;;;;;;;;;5026991;28;20089;-77
2023/08/29 01:42:41;;;;;;;16.15;8.00;;;;;;;;;;5013712;28;20499;-75
2023/08/29 01:45:08;;;;;;;15.10;7.13;;;;;;;;;;5020536;28;20091;-79
2023/08/29 01:47:34;;;;;;;12.73;5.78;;;;;;;;;;5028159;28;20034;-77
2023/08/29 01:50:04;;;;;;;11.10;5.90;;;;;;;;;;5017597;28;20434;-78
2023/08/29 01:52:31;;;;;;;12.65;6.60;;;;;;;;;;4998385;28;20898;-78
2023/08/29 01:54:57;;;;;;;13.55;5.85;;;;;;;;;;5036245;28;20032;-77
2023/08/29 01:57:27;;;;;;;16.33;7.20;;;;;;;;;;5013743;28;20025;-76
2023/08/29 01:59:53;;;;;;;11.93;6.50;;;;;;;;;;5031386;28;20079;-77
2023/08/29 02:02:20;;;;;;;12.30;7.00;;;;;;;;;;5011195;28;20073;-79
2023/08/29 02:04:46;;;;;;;8.60;3.95;;;;;;;;;;5010357;28;20053;-77
2023/08/29 02:07:13;;;;;;;2.72;1.90;;;;;;;;;;5037185;28;20541;-77
2023/08/29 02:09:39;;;;;;;2.67;1.92;;;;;;;;;;5015469;28;20037;-77
2023/08/29 02:12:06;;;;;;;3.33;2.03;;;;;;;;;;5003450;28;20491;-78
2023/08/29 02:14:32;;;;;;;3.10;2.17;;;;;;;;;;5016698;28;20071;-77
2023/08/29 02:16:59;;;;;;;4.90;3.00;;;;;;;;;;5040859;28;20030;-78
2023/08/29 02:19:26;;;;;;;4.40;2.60;;;;;;;;;;5013598;28;20045;-76
2023/08/29 02:21:52;;;;;;;7.13;3.95;;;;;;;;;;5013433;28;20108;-79
2023/08/29 02:24:18;;;;;;;8.60;4.45;;;;;;;;;;4994415;28;20034;-78
2023/08/29 02:26:44;;;;;;;18.65;8.52;;;;;;;;;;5027540;28;20025;-79
2023/08/29 02:29:10;;;;;;;11.75;5.93;;;;;;;;;;5001517;28;20367;-77
2023/08/29 02:31:37;;;;;;;14.52;7.10;;;;;;;;;;5036703;28;20032;-78
2023/08/29 02:34:03;;;;;;;12.35;6.43;;;;;;;;;;5023657;28;20058;-77
2023/08/29 02:36:30;;;;;;;16.45;6.50;;;;;;;;;;5036653;28;20043;-78
2023/08/29 02:38:56;;;;;;;16.27;7.13;;;;;;;;;;5036063;28;20037;-77
2023/08/29 02:41:22;;;;;;;14.07;6.68;;;;;;;;;;5038277;28;20067;-78
2023/08/29 02:43:48;;;;;;;18.17;6.63;;;;;;;;;;5017603;28;20038;-77
2023/08/29 02:46:14;;;;;;;18.88;6.88;;;;;;;;;;5045455;28;20394;-78
2023/08/29 02:48:41;;;;;;;20.80;7.72;;;;;;;;;;5028001;28;20052;-77
2023/08/29 02:51:07;;;;;;;14.02;7.40;;;;;;;;;;5043695;28;20123;-76
2023/08/29 02:53:33;;;;;;;16.63;7.20;;;;;;;;;;4999622;28;20033;-78
2023/08/29 02:55:59;;;;;;;14.07;6.97;;;;;;;;;;5019155;28;20033;-77
2023/08/29 02:58:26;;;;;;;15.95;6.75;;;;;;;;;;5036211;28;20053;-77
2023/08/29 03:01:03;;;;;;;10.05;5.05;;;;;;;;;;5014478;28;20021;-77
2023/08/29 03:03:29;;;;;;;15.90;5.85;;;;;;;;;;5032042;28;20041;-77
2023/08/29 03:05:56;;;;;;;66.10;7.63;;;;;;;;;;5017446;28;20452;-77
2023/08/29 03:08:23;;;;;;;39.20;6.82;;;;;;;;;;5019169;28;20037;-77
2023/08/29 03:10:50;;;;;;;45.17;7.88;;;;;;;;;;5024046;28;20165;-77
2023/08/29 03:13:17;;;;;;;16.95;6.25;;;;;;;;;;5028433;28;20433;-78
2023/08/29 03:15:47;;;;;;;12.35;4.35;;;;;;;;;;5019293;28;20119;-77
2023/08/29 03:18:14;;;;;;;17.88;5.60;;;;;;;;;;5017750;28;20030;-78
2023/08/29 03:20:40;;;;;;;25.58;8.55;;;;;;;;;;5015817;28;20029;-78
2023/08/29 03:23:09;;;;;;;24.08;8.48;;;;;;;;;;5018225;28;20038;-79
2023/08/29 03:25:36;;;;;;;23.85;9.88;;;;;;;;;;5023263;28;20134;-78
2023/08/29 03:28:03;;;;;;;28.35;11.88;;;;;;;;;;5031727;28;20521;-77
2023/08/29 03:30:30;;;;;;;39.17;15.10;;;;;;;;;;5021238;28;20025;-78
2023/08/29 03:32:56;;;;;;;31.00;13.15;;;;;;;;;;5032100;28;20033;-77
2023/08/29 03:35:23;;;;;;;26.23;11.88;;;;;;;;;;5019307;28;20033;-78
2023/08/29 03:37:49;;;;;;;19.42;10.07;;;;;;;;;;5035082;28;20486;-78
2023/08/29 03:40:15;;;;;;;26.27;10.88;;;;;;;;;;5042952;28;20454;-77
2023/08/29 03:42:42;;;;;;;22.38;10.88;;;;;;;;;;5002955;28;20050;-78
2023/08/29 03:45:08;;;;;;;23.40;11.43;;;;;;;;;;5013301;28;20017;-75
2023/08/29 03:47:36;;;;;;;22.60;10.70;;;;;;;;;;5033695;28;20508;-79
2023/08/29 03:50:02;;;;;;;22.73;11.27;;;;;;;;;;5018156;28;20051;-77
2023/08/29 03:52:29;;;;;;;30.70;12.82;;;;;;;;;;5033971;28;20099;-77
2023/08/29 03:54:56;;;;;;;25.48;12.00;;;;;;;;;;5006913;28;20026;-78
2023/08/29 03:57:23;;;;;;;25.77;11.70;;;;;;;;;;5013484;28;20090;-80
2023/08/29 03:59:49;;;;;;;23.27;11.52;;;;;;;;;;5038663;28;20032;-78
2023/08/29 04:02:15;;;;;;;35.25;12.73;;;;;;;;;;5032462;28;20038;-79
2023/08/29 04:04:44;;;;;;;27.20;13.43;;;;;;;;;;4992156;28;20073;-77
2023/08/29 04:07:10;;;;;;;39.38;14.93;;;;;;;;;;5028028;28;20028;-78
2023/08/29 04:09:38;;;;;;;31.30;14.00;;;;;;;;;;5007622;28;20030;-76
2023/08/29 04:12:07;;;;;;;36.63;14.75;;;;;;;;;;5025775;28;20033;-78
2023/08/29 04:14:36;;;;;;;31.85;14.43;;;;;;;;;;5006225;28;20025;-78
2023/08/29 04:17:03;;;;;;;32.50;15.07;;;;;;;;;;5028182;28;20033;-77
2023/08/29 04:19:29;;;;;;;35.28;14.27;;;;;;;;;;5026255;28;20452;-78
2023/08/29 04:21:56;;;;;;;31.90;13.35;;;;;;;;;;5036285;28;20163;-78
2023/08/29 04:24:23;;;;;;;30.30;13.38;;;;;;;;;;5025755;28;20050;-77
2023/08/29 04:26:49;;;;;;;32.00;14.13;;;;;;;;;;5028679;28;20514;-78
2023/08/29 04:29:15;;;;;;;26.35;10.40;;;;;;;;;;5012315;28;20025;-77
2023/08/29 04:31:43;;;;;;;25.85;10.73;;;;;;;;;;5049569;28;20041;-77
2023/08/29 04:34:09;;;;;;;23.00;10.75;;;;;;;;;;5000215;28;20064;-77
2023/08/29 04:36:35;;;;;;;21.42;9.93;;;;;;;;;;5018611;28;20089;-78
2023/08/29 04:39:03;;;;;;;20.33;9.48;;;;;;;;;;5018107;28;20040;-77
2023/08/29 04:41:29;;;;;;;19.60;9.98;;;;;;;;;;5041451;28;20040;-78
2023/08/29 04:43:55;;;;;;;21.08;8.95;;;;;;;;;;5014159;28;20025;-79
2023/08/29 04:46:22;;;;;;;20.67;8.40;;;;;;;;;;4982478;28;20349;-78
2023/08/29 04:48:49;;;;;;;23.63;9.60;;;;;;;;;;5026366;28;20113;-77
2023/08/29 04:51:16;;;;;;;15.65;7.75;;;;;;;;;;5031369;28;20030;-77
2023/08/29 04:53:42;;;;;;;28.45;8.63;;;;;;;;;;5013764;28;20037;-77
2023/08/29 04:56:08;;;;;;;15.50;7.55;;;;;;;;;;5022562;28;20060;-77
2023/08/29 04:58:36;;;;;;;22.38;8.95;;;;;;;;;;5023199;28;20033;-76
2023/08/29 05:01:03;;;;;;;20.58;9.35;;;;;;;;;;5037179;28;20498;-77
2023/08/29 05:03:29;;;;;;;24.90;11.20;;;;;;;;;;5007209;28;20483;-79
2023/08/29 05:05:57;;;;;;;27.05;11.07;;;;;;;;;;5028626;28;20086;-79
2023/08/29 05:08:23;;;;;;;20.50;9.32;;;;;;;;;;5003785;28;20030;-78
2023/08/29 05:10:50;;;;;;;26.23;9.35;;;;;;;;;;5030386;28;20100;-80
2023/08/29 05:13:16;;;;;;;21.40;9.73;;;;;;;;;;4999445;28;20041;-77
2023/08/29 05:15:43;;;;;;;20.30;8.98;;;;;;;;;;5017331;28;20498;-80
2023/08/29 05:18:09;;;;;;;18.25;8.85;;;;;;;;;;5028085;28;20085;-79
2023/08/29 05:20:39;;;;;;;21.90;8.60;;;;;;;;;;5006897;28;20269;-80
2023/08/29 05:23:05;;;;;;;20.13;10.10;;;;;;;;;;5012938;28;20427;-79
2023/08/29 05:25:31;;;;;;;28.13;11.32;;;;;;;;;;5016073;28;20044;-78
2023/08/29 05:27:57;;;;;;;24.70;11.88;;;;;;;;;;5028056;28;20105;-76
2023/08/29 05:30:24;;;;;;;22.63;11.13;;;;;;;;;;5034945;28;20044;-85
2023/08/29 05:32:50;;;;;;;22.45;10.23;;;;;;;;;;5033709;28;20033;-79
2023/08/29 05:35:16;;;;;;;22.58;12.18;;;;;;;;;;5054394;28;20051;-78
2023/08/29 05:37:42;;;;;;;18.30;10.45;;;;;;;;;;5044908;28;20122;-79
2023/08/29 05:40:09;;;;;;;17.13;9.75;;;;;;;;;;5005111;28;20034;-78
2023/08/29 05:42:35;;;;;;;16.02;8.32;;;;;;;;;;5023732;28;20087;-80
2023/08/29 05:45:01;;;;;;;13.95;8.40;;;;;;;;;;5015867;28;20482;-78
2023/08/29 05:47:27;;;;;;;12.60;7.68;;;;;;;;;;5011779;28;20491;-79
2023/08/29 05:49:54;;;;;;;9.40;6.32;;;;;;;;;;5028284;28;20050;-78
2023/08/29 05:52:20;;;;;;;9.55;6.15;;;;;;;;;;5033590;28;20049;-79
2023/08/29 05:54:46;;;;;;;8.93;5.97;;;;;;;;;;5028487;28;20233;-79
2023/08/29 05:57:12;;;;;;;6.72;5.22;;;;;;;;;;5032218;28;20029;-77
2023/08/29 05:59:38;;;;;;;8.68;4.55;;;;;;;;;;5024722;28;20372;-79
2023/08/29 06:02:05;;;;;;;9.60;5.28;;;;;;;;;;5026175;28;20128;-77
2023/08/29 06:04:32;;;;;;;11.57;4.82;;;;;;;;;;5010768;28;20058;-78
2023/08/29 06:06:59;;;;;;;7.70;5.18;;;;;;;;;;5031175;28;20025;-78
2023/08/29 06:09:26;;;;;;;8.38;5.20;;;;;;;;;;5026391;28;20030;-79
2023/08/29 06:11:52;;;;;;;9.90;5.10;;;;;;;;;;5004148;28;20041;-79
2023/08/29 06:14:18;;;;;;;5.95;4.15;;;;;;;;;;5026783;28;20114;-79
2023/08/29 06:16:44;;;;;;;10.90;5.20;;;;;;;;;;5006746;28;20108;-78
2023/08/29 06:19:10;;;;;;;9.77;4.43;;;;;;;;;;5011753;28;20120;-78
2023/08/29 06:21:38;;;;;;;6.93;4.80;;;;;;;;;;5006309;28;20175;-76
2023/08/29 06:24:05;;;;;;;7.65;4.20;;;;;;;;;;5026035;28;20118;-77
2023/08/29 06:26:31;;;;;;;14.88;4.57;;;;;;;;;;5022409;28;20030;-79
2023/08/29 06:28:57;;;;;;;10.40;4.70;;;;;;;;;;5024774;28;20051;-78
2023/08/29 06:31:23;;;;;;;12.50;5.28;;;;;;;;;;5014664;28;20108;-77
2023/08/29 06:33:50;;;;;;;14.57;6.32;;;;;;;;;;5026738;28;20108;-78
2023/08/29 06:36:16;;;;;;;9.18;5.50;;;;;;;;;;4999801;28;20037;-78
2023/08/29 06:38:42;;;;;;;7.88;5.05;;;;;;;;;;5042094;28;20140;-78
2023/08/29 06:41:09;;;;;;;8.55;5.03;;;;;;;;;;5029835;28;20044;-82
2023/08/29 06:43:35;;;;;;;10.60;5.32;;;;;;;;;;5020584;28;20037;-77
2023/08/29 06:46:02;;;;;;;8.27;5.43;;;;;;;;;;4995090;28;20021;-77
2023/08/29 06:48:28;;;;;;;12.75;5.75;;;;;;;;;;5026128;28;20075;-76
2023/08/29 06:50:54;;;;;;;11.70;6.07;;;;;;;;;;5022858;28;20025;-79
2023/08/29 06:53:22;;;;;;;8.45;5.50;;;;;;;;;;5016233;28;20108;-78
2023/08/29 06:55:49;;;;;;;9.27;6.10;;;;;;;;;;5031716;28;20141;-79
2023/08/29 06:58:16;;;;;;;10.38;6.32;;;;;;;;;;5036004;28;20042;-78
2023/08/29 07:00:42;;;;;;;16.75;6.55;;;;;;;;;;5031315;28;20095;-77
2023/08/29 07:03:08;;;;;;;9.15;6.00;;;;;;;;;;5030844;28;20037;-77
2023/08/29 07:05:34;;;;;;;16.60;6.07;;;;;;;;;;5021872;28;20034;-78
2023/08/29 07:08:00;;;;;;;16.73;7.25;;;;;;;;;;5036269;28;20029;-78
2023/08/29 07:10:27;;;;;;;10.85;6.05;;;;;;;;;;5014165;28;20061;-78
2023/08/29 07:12:53;;;;;;;13.68;6.00;;;;;;;;;;5029558;28;20539;-77
2023/08/29 07:15:39;;;;;;;11.98;5.50;;;;;;;;;;5029820;28;20045;-77
2023/08/29 07:18:05;;;;;;;11.38;5.53;;;;;;;;;;5009297;28;20049;-77
2023/08/29 07:20:32;;;;;;;9.00;5.20;;;;;;;;;;5028520;28;20124;-76
2023/08/29 07:22:58;;;;;;;13.70;6.38;;;;;;;;;;5019970;28;20116;-78
2023/08/29 07:25:38;;;;;;;8.75;5.40;;;;;;;;;;5033056;28;20079;-77
2023/08/29 07:28:05;;;;;;;7.10;5.40;;;;;;;;;;5024565;28;20025;-77
2023/08/29 07:30:31;;;;;;;11.63;5.30;;;;;;;;;;5038881;28;20052;-76
2023/08/29 07:32:58;;;;;;;10.20;5.05;;;;;;;;;;5042094;28;20094;-78
2023/08/29 07:35:24;;;;;;;7.90;4.50;;;;;;;;;;5037627;28;20806;-77
2023/08/29 07:37:51;;;;;;;7.72;5.15;;;;;;;;;;5040521;28;20039;-77
2023/08/29 07:40:18;;;;;;;6.97;4.40;;;;;;;;;;5029908;28;20068;-77
2023/08/29 07:42:44;;;;;;;8.30;4.45;;;;;;;;;;5034502;28;20056;-76
2023/08/29 07:45:10;;;;;;;9.95;4.25;;;;;;;;;;5012930;28;20025;-78
2023/08/29 07:47:37;;;;;;;6.72;3.78;;;;;;;;;;5012052;28;20560;-77
2023/08/29 07:50:03;;;;;;;7.22;3.78;;;;;;;;;;5024065;28;20037;-77
2023/08/29 07:52:29;;;;;;;7.68;3.70;;;;;;;;;;5021221;28;20057;-76
2023/08/29 07:54:58;;;;;;;10.05;3.50;;;;;;;;;;5034137;28;20528;-76
2023/08/29 07:57:24;;;;;;;6.32;3.10;;;;;;;;;;5031749;28;20104;-84
2023/08/29 07:59:50;;;;;;;5.47;3.05;;;;;;;;;;5026618;28;20032;-76
2023/08/29 08:02:16;;;;;;;8.82;3.20;;;;;;;;;;5016754;28;20038;-77
2023/08/29 08:04:43;;;;;;;5.97;2.55;;;;;;;;;;5032990;28;20049;-78
2023/08/29 08:07:09;;;;;;;4.45;2.33;;;;;;;;;;5044014;28;20036;-78
2023/08/29 08:09:35;;;;;;;6.13;2.78;;;;;;;;;;5038441;28;20093;-77
2023/08/29 08:12:02;;;;;;;5.88;3.00;;;;;;;;;;5023648;28;20379;-76
2023/08/29 08:14:28;;;;;;;5.13;2.63;;;;;;;;;;5044309;28;20455;-80
2023/08/29 08:16:54;;;;;;;4.18;2.33;;;;;;;;;;5038764;28;20025;-77
2023/08/29 08:19:20;;;;;;;6.07;2.50;;;;;;;;;;5030511;28;20135;-76
2023/08/29 08:21:46;;;;;;;6.75;3.05;;;;;;;;;;5029220;28;20033;-76
2023/08/29 08:24:13;;;;;;;8.95;3.88;;;;;;;;;;5008846;28;20037;-78
2023/08/29 08:26:39;;;;;;;7.05;3.53;;;;;;;;;;5011963;28;20029;-76
2023/08/29 08:29:05;;;;;;;7.00;3.30;;;;;;;;;;5018550;28;20040;-76
2023/08/29 08:31:32;;;;;;;7.10;2.83;;;;;;;;;;5021813;28;20029;-78
2023/08/29 08:33:58;;;;;;;6.40;3.63;;;;;;;;;;4996969;28;20041;-78
2023/08/29 08:36:25;;;;;;;7.53;3.50;;;;;;;;;;5017212;28;20029;-77
2023/08/29 08:38:51;;;;;;;8.20;3.67;;;;;;;;;;5047594;28;20469;-78
2023/08/29 08:41:18;;;;;;;5.20;2.83;;;;;;;;;;5028565;28;20491;-77
2023/08/29 08:43:45;;;;;;;5.05;2.80;;;;;;;;;;5034086;28;20033;-76
2023/08/29 08:46:14;;;;;;;8.10;3.80;;;;;;;;;;5014718;28;20034;-78
2023/08/29 08:48:41;;;;;;;7.20;3.63;;;;;;;;;;5014644;28;20033;-76
2023/08/29 08:51:07;;;;;;;6.70;3.70;;;;;;;;;;5033203;28;20038;-77
2023/08/29 08:53:34;;;;;;;7.88;3.55;;;;;;;;;;5030447;28;20025;-77
2023/08/29 08:56:00;;;;;;;6.13;3.28;;;;;;;;;;5013653;28;20033;-78
2023/08/29 08:58:27;;;;;;;6.05;3.70;;;;;;;;;;5038796;28;20044;-77
2023/08/29 09:00:53;;;;;;;8.48;4.20;;;;;;;;;;5019918;28;20120;-77
2023/08/29 09:03:19;;;;;;;4.35;2.92;;;;;;;;;;5020365;28;20025;-77
2023/08/29 09:05:46;;;;;;;7.30;3.10;;;;;;;;;;5027207;28;20107;-77
2023/08/29 09:08:12;;;;;;;5.82;3.08;;;;;;;;;;5045523;28;20141;-77
2023/08/29 09:10:39;;;;;;;4.63;2.28;;;;;;;;;;5026791;28;20478;-76
2023/08/29 09:13:05;;;;;;;5.78;2.75;;;;;;;;;;5040500;28;20036;-77
2023/08/29 09:15:32;;;;;;;3.00;2.00;;;;;;;;;;5018374;28;20132;-76
2023/08/29 09:17:58;;;;;;;4.82;2.20;;;;;;;;;;5017630;28;20041;-78
2023/08/29 09:20:28;;;;;;;5.82;1.80;;;;;;;;;;5027908;28;20033;-78
2023/08/29 09:22:55;;;;;;;4.20;2.03;;;;;;;;;;5036269;28;20038;-76
2023/08/29 09:25:21;;;;;;;5.18;2.25;;;;;;;;;;5010735;28;20168;-77
2023/08/29 09:27:48;;;;;;;4.22;1.70;;;;;;;;;;5028043;28;20155;-78
2023/08/29 09:30:16;;;;;;;3.00;1.52;;;;;;;;;;5031602;28;20028;-77
2023/08/29 09:32:43;;;;;;;5.55;1.85;;;;;;;;;;5030735;28;20037;-77
2023/08/29 09:35:14;;;;;;;4.00;1.70;;;;;;;;;;5036795;28;20025;-77
2023/08/29 09:37:42;;;;;;;4.20;1.60;;;;;;;;;;5027130;28;20041;-77
2023/08/29 09:40:09;;;;;;;3.47;2.08;;;;;;;;;;5031158;28;20057;-79
2023/08/29 09:42:36;;;;;;;3.97;1.80;;;;;;;;;;5025318;28;20052;-79
2023/08/29 09:45:07;;;;;;;5.03;2.05;;;;;;;;;;5032021;28;20182;-78
2023/08/29 09:47:33;;;;;;;;;;;;;;;;;;5003337;28;20088;-77
2023/08/29 09:49:59;;;;;;;3.40;1.92;;;;;;;;;;5026639;28;19916;-76
2023/08/29 09:52:25;;;;;;;3.42;2.00;;;;;;;;;;5017381;28;20056;-76
2023/08/29 09:54:52;;;;;;;3.50;1.92;;;;;;;;;;5032398;28;20029;-76
2023/08/29 09:57:21;;;;;;;1.98;1.10;;;;;;;;;;5035888;28;20620;-76
2023/08/29 09:59:47;;;;;;;3.25;1.70;;;;;;;;;;5038097;28;20029;-76
2023/08/29 10:02:17;;;;;;;3.60;2.95;;;;;;;;;;5051008;28;20108;-79
2023/08/29 10:04:46;;;;;;;4.60;2.95;;;;;;;;;;5044055;28;20076;-78
2023/08/29 10:07:16;;;;;;;5.30;3.70;;;;;;;;;;5038217;28;20021;-77
2023/08/29 10:09:43;;;;;;;5.18;4.00;;;;;;;;;;5038183;28;20041;-77
2023/08/29 10:12:09;;;;;;;4.70;4.20;;;;;;;;;;5037183;28;20053;-78
2023/08/29 10:14:39;;;;;;;5.70;4.07;;;;;;;;;;5031328;28;20060;-77
2023/08/29 10:17:05;;;;;;;6.80;4.38;;;;;;;;;;5031962;28;20456;-77
2023/08/29 10:19:32;;;;;;;5.60;5.00;;;;;;;;;;4987968;28;20025;-78
2023/08/29 10:22:00;;;;;;;6.07;5.20;;;;;;;;;;5032109;28;20033;-76
2023/08/29 10:24:27;;;;;;;8.30;5.13;;;;;;;;;;5029929;28;20111;-77
2023/08/29 10:26:54;;;;;;;11.35;6.10;;;;;;;;;;5014288;28;20029;-77
2023/08/29 10:29:20;;;;;;;7.88;6.05;;;;;;;;;;5039467;28;20025;-77
2023/08/29 10:31:48;;;;;;;8.05;4.97;;;;;;;;;;4995521;28;20117;-76
2023/08/29 10:34:14;;;;;;;6.78;5.35;;;;;;;;;;5033156;28;20056;-78
2023/08/29 10:36:41;;;;;;;6.65;5.78;;;;;;;;;;5025674;28;20049;-78
2023/08/29 10:39:13;;;;;;;7.15;6.00;;;;;;;;;;5010748;28;20296;-76
2023/08/29 10:41:54;;;;;;;8.38;6.10;;;;;;;;;;5040009;28;20037;-81
2023/08/29 10:44:29;;;;;;;5.65;5.00;;;;;;;;;;5031528;28;20051;-78
2023/08/29 10:47:26;;;;;;;4.65;4.05;;;;;;;;;;5025679;28;20022;-78
2023/08/29 10:49:58;;;;;;;6.65;5.97;;;;;;;;;;5033940;28;20041;-77
2023/08/29 10:52:34;;;;;;;7.97;6.97;;;;;;;;;;5041597;28;20028;-78
2023/08/29 10:55:07;;;;;;;7.95;6.97;;;;;;;;;;5016898;28;20084;-79
2023/08/29 10:57:35;;;;;;;7.63;6.53;;;;;;;;;;5035413;28;20037;-76
2023/08/29 11:00:03;;;;;;;7.70;7.03;;;;;;;;;;5048138;28;20036;-78
2023/08/29 11:02:30;;;;;;;10.20;7.63;;;;;;;;;;5047196;28;20037;-77
2023/08/29 11:05:03;;;;;;;8.07;6.85;;;;;;;;;;5015969;28;20295;-77
2023/08/29 11:07:29;;;;;;;7.72;7.03;;;;;;;;;;5041289;28;20025;-78
2023/08/29 11:10:13;;;;;;;9.63;8.32;;;;;;;;;;5008129;28;20021;-77
2023/08/29 11:12:58;;;;;;;10.20;7.35;;;;;;;;;;5029643;28;20116;-77
2023/08/29 11:15:44;;;;;;;7.70;7.00;;;;;;;;;;5023312;28;20025;-79
2023/08/29 11:18:29;;;;;;;8.18;7.32;;;;;;;;;;5028926;28;20034;-77
2023/08/29 11:20:56;;;;;;;7.95;6.13;;;;;;;;;;5023531;28;20330;-78
2023/08/29 11:23:25;;;;;;;6.90;5.20;;;;;;;;;;5029507;28;20858;-79
2023/08/29 11:25:51;;;;;;;7.45;5.38;;;;;;;;;;5006399;28;20033;-79
2023/08/29 11:28:19;;;;;;;6.85;4.90;;;;;;;;;;5028133;28;20072;-78
2023/08/29 11:30:46;;;;;;;8.95;6.45;;;;;;;;;;5010667;28;20048;-78
2023/08/29 11:33:13;;;;;;;9.88;5.85;;;;;;;;;;4999528;28;20030;-78
2023/08/29 11:35:39;;;;;;;8.10;6.75;;;;;;;;;;5038415;28;20025;-78
2023/08/29 11:38:05;;;;;;;10.10;6.20;;;;;;;;;;5015670;28;20135;-78
2023/08/29 11:40:32;;;;;;;9.70;5.82;;;;;;;;;;5035618;28;20618;-78
2023/08/29 11:42:58;;;;;;;9.77;7.72;;;;;;;;;;5031184;28;20021;-76
2023/08/29 11:45:26;;;;;;;10.48;8.50;;;;;;;;;;5011369;28;20033;-86
2023/08/29 11:47:52;;;;;;;9.90;7.45;;;;;;;;;;5034458;28;20078;-77
2023/08/29 11:50:18;;;;;;;10.88;8.02;;;;;;;;;;5031390;28;20030;-77
2023/08/29 11:52:44;;;;;;;16.58;8.18;;;;;;;;;;4996669;28;20022;-75
2023/08/29 11:55:16;;;;;;;8.85;7.15;;;;;;;;;;5036568;28;20505;-77
2023/08/29 11:57:44;;;;;;;9.50;6.47;;;;;;;;;;5034768;28;20041;-77
2023/08/29 12:00:12;;;;;;;5.93;5.32;;;;;;;;;;5047572;28;20120;-77
2023/08/29 12:02:38;;;;;;;6.93;4.70;;;;;;;;;;5012083;28;20033;-77
2023/08/29 12:05:10;;;;;;;9.75;4.78;;;;;;;;;;5035974;28;20056;-76
2023/08/29 12:07:36;;;;;;;6.78;5.15;;;;;;;;;;5030367;28;20029;-77
2023/08/29 12:10:09;;;;;;;8.20;5.40;;;;;;;;;;5016765;28;20033;-77
2023/08/29 12:12:36;;;;;;;7.95;5.35;;;;;;;;;;5047462;28;20033;-76
2023/08/29 12:15:06;;;;;;;9.48;6.80;;;;;;;;;;5037999;28;20112;-78
2023/08/29 12:17:42;;;;;;;7.13;5.93;;;;;;;;;;5041211;28;20021;-77
2023/08/29 12:20:14;;;;;;;7.22;6.18;;;;;;;;;;5037778;28;20036;-77
2023/08/29 12:22:42;;;;;;;6.57;5.20;;;;;;;;;;5017913;28;20410;-76
2023/08/29 12:25:11;;;;;;;8.82;5.72;;;;;;;;;;5032968;28;20034;-77
2023/08/29 12:27:37;;;;;;;8.85;5.43;;;;;;;;;;5012412;28;20312;-77
2023/08/29 12:30:04;;;;;;;9.68;7.20;;;;;;;;;;5039313;28;20095;-79
2023/08/29 12:32:30;;;;;;;10.40;7.35;;;;;;;;;;5026689;28;20113;-79
2023/08/29 12:34:57;;;;;;;13.95;7.72;;;;;;;;;;5015144;28;20372;-79
2023/08/29 12:37:23;;;;;;;11.70;8.75;;;;;;;;;;5026490;28;20025;-77
2023/08/29 12:39:50;;;;;;;10.30;8.32;;;;;;;;;;5027643;28;20049;-77
2023/08/29 12:42:16;;;;;;;12.00;9.00;;;;;;;;;;5039355;28;20029;-76
2023/08/29 12:44:42;;;;;;;10.77;9.02;;;;;;;;;;5032968;28;20032;-76
2023/08/29 12:47:09;;;;;;;12.02;9.55;;;;;;;;;;5025939;28;20061;-79
2023/08/29 12:49:38;;;;;;;13.05;9.80;;;;;;;;;;5036767;28;20025;-76
2023/08/29 12:52:04;;;;;;;14.60;9.95;;;;;;;;;;5039769;28;20087;-77
2023/08/29 12:54:30;;;;;;;12.88;11.23;;;;;;;;;;5034169;28;20054;-78
2023/08/29 12:56:58;;;;;;;15.18;11.07;;;;;;;;;;5037501;28;20665;-78
2023/08/29 12:59:24;;;;;;;12.73;11.35;;;;;;;;;;5035182;28;20061;-77
2023/08/29 13:01:50;;;;;;;12.32;10.90;;;;;;;;;;5021004;28;20028;-77
2023/08/29 13:04:16;;;;;;;12.10;10.40;;;;;;;;;;5032434;28;20060;-77
2023/08/29 13:06:43;;;;;;;17.58;11.77;;;;;;;;;;5026811;28;20034;-76
2023/08/29 13:09:09;;;;;;;13.73;11.52;;;;;;;;;;5033879;28;20099;-78
2023/08/29 13:11:36;;;;;;;20.35;11.48;;;;;;;;;;5027578;28;20029;-78
2023/08/29 13:14:03;;;;;;;12.73;11.52;;;;;;;;;;4995088;28;20099;-77
2023/08/29 13:16:32;;;;;;;14.52;11.43;;;;;;;;;;5040387;28;20048;-77
2023/08/29 13:18:59;;;;;;;13.98;12.13;;;;;;;;;;5026313;28;20293;-77
2023/08/29 13:21:25;;;;;;;16.13;12.73;;;;;;;;;;5026704;28;20128;-76
2023/08/29 13:23:51;;;;;;;15.07;12.27;;;;;;;;;;5037145;28;20056;-75
2023/08/29 13:26:20;;;;;;;12.57;8.90;;;;;;;;;;5031889;28;20038;-76
2023/08/29 13:28:46;;;;;;;9.38;8.27;;;;;;;;;;5023169;28;20041;-76
2023/08/29 13:31:15;;;;;;;8.68;7.22;;;;;;;;;;5027181;28;20394;-75
2023/08/29 13:33:41;;;;;;;11.15;7.65;;;;;;;;;;5026932;28;20102;-77
2023/08/29 13:36:07;;;;;;;11.35;5.75;;;;;;;;;;5006681;28;20041;-76
2023/08/29 13:38:34;;;;;;;7.45;4.18;;;;;;;;;;5016129;28;20113;-77
2023/08/29 13:41:00;;;;;;;6.22;4.30;;;;;;;;;;5022306;28;20040;-75
2023/08/29 13:43:26;;;;;;;10.60;4.70;;;;;;;;;;5043531;28;20029;-77
2023/08/29 13:45:52;;;;;;;7.00;4.68;;;;;;;;;;5040451;28;20079;-76
2023/08/29 13:48:18;;;;;;;8.25;4.75;;;;;;;;;;5030292;28;20056;-75
2023/08/29 13:50:45;;;;;;;7.03;4.05;;;;;;;;;;5018005;28;20030;-75
2023/08/29 13:53:11;;;;;;;6.90;4.35;;;;;;;;;;5031462;28;20123;-74
2023/08/29 13:55:38;;;;;;;6.20;3.47;;;;;;;;;;5041237;28;20072;-74
2023/08/29 13:58:05;;;;;;;9.88;4.47;;;;;;;;;;5029327;28;20046;-76
2023/08/29 14:00:31;;;;;;;8.02;4.50;;;;;;;;;;4993529;28;20661;-76
2023/08/29 14:02:57;;;;;;;9.55;4.28;;;;;;;;;;5027479;28;20060;-74
2023/08/29 14:05:23;;;;;;;7.78;4.65;;;;;;;;;;5033304;28;20049;-73
2023/08/29 14:07:50;;;;;;;8.50;4.00;;;;;;;;;;5025539;28;20065;-74
2023/08/29 14:10:17;;;;;;;6.90;3.47;;;;;;;;;;5017665;28;20026;-74
2023/08/29 14:12:43;;;;;;;9.23;3.80;;;;;;;;;;5030055;28;20035;-73
2023/08/29 14:15:09;;;;;;;7.13;3.55;;;;;;;;;;5006288;28;20087;-74
2023/08/29 14:17:35;;;;;;;5.38;3.40;;;;;;;;;;5026400;28;20025;-75
2023/08/29 14:20:05;;;;;;;8.43;3.60;;;;;;;;;;5039105;28;20033;-75
2023/08/29 14:22:31;;;;;;;7.82;3.70;;;;;;;;;;5007478;28;20044;-75
2023/08/29 14:24:59;;;;;;;7.72;2.90;;;;;;;;;;5034645;28;20112;-73
2023/08/29 14:27:25;;;;;;;6.35;3.22;;;;;;;;;;5032522;28;20029;-74
2023/08/29 14:29:51;;;;;;;8.65;3.22;;;;;;;;;;5036935;28;20049;-75
2023/08/29 14:32:18;;;;;;;5.50;2.65;;;;;;;;;;5034211;28;20034;-74
2023/08/29 14:34:44;;;;;;;5.82;3.10;;;;;;;;;;5031694;28;20043;-74
2023/08/29 14:37:11;;;;;;;7.28;3.03;;;;;;;;;;5015980;28;20033;-74